Time;durP1;ratioP1;P1;durP2;ratioP2;P2;SDS_P1;SDS_P2;PMS_P1;PMS_P2;Temp;Humidity;BMP_temperature;BMP_pressure;BME280_temperature;BME280_humidity;BME280_pressure;Samples;Min_cycle;Max_cycle;Signal;HPM_P1;HPM_P2
2022/06/06 00:01:59;;;;;;;5.28;3.80;;;;;;;16.85;51.55;96560.51;1694075;85;21098;-81
2022/06/06 00:04:29;;;;;;;4.42;3.85;;;;;;;16.97;51.30;96565.86;1693883;84;21434;-81
2022/06/06 00:06:58;;;;;;;4.20;3.90;;;;;;;17.03;51.34;96561.84;1693854;85;21015;-81
2022/06/06 00:09:26;;;;;;;3.72;3.42;;;;;;;17.06;51.21;96565.84;1693841;84;21362;-81
2022/06/06 00:11:58;;;;;;;5.37;3.90;;;;;;;17.15;51.21;96565.87;1694091;84;21051;-81
2022/06/06 00:14:24;;;;;;;5.28;4.40;;;;;;;17.20;51.06;96560.75;1693998;84;21015;-81
2022/06/06 00:16:49;;;;;;;4.30;4.00;;;;;;;17.25;51.15;96563.55;1697512;84;21983;-81
2022/06/06 00:19:15;;;;;;;4.60;4.20;;;;;;;17.28;51.02;96557.05;1688596;84;21026;-82
2022/06/06 00:21:41;;;;;;;5.08;4.58;;;;;;;17.30;51.17;96576.81;1689501;84;21027;-81
2022/06/06 00:24:07;;;;;;;5.90;5.40;;;;;;;17.23;51.80;96580.52;1698544;84;21335;-81
2022/06/06 00:26:33;;;;;;;5.37;4.87;;;;;;;17.03;52.54;96584.66;1698523;84;20940;-82
2022/06/06 00:28:59;;;;;;;6.15;4.70;;;;;;;16.83;53.05;96578.30;1698517;84;21007;-81
2022/06/06 00:36:57;;;;;;;4.80;4.40;;;;;;;16.39;55.02;96551.19;1675497;84;21004;-81
2022/06/06 00:39:23;;;;;;;6.00;4.53;;;;;;;16.36;54.70;96544.26;1664680;86;21020;-81
2022/06/06 00:41:51;;;;;;;4.95;4.55;;;;;;;16.37;54.88;96547.98;1669946;84;21109;-81
2022/06/06 00:44:20;;;;;;;4.95;4.55;;;;;;;16.48;54.37;96555.16;1684359;85;21401;-81
2022/06/06 00:46:54;;;;;;;5.15;4.65;;;;;;;16.60;54.63;96563.65;1684258;84;21014;-81
2022/06/06 00:49:28;;;;;;;5.00;4.60;;;;;;;16.62;54.49;96571.59;1717452;83;21445;-81
2022/06/06 00:51:54;;;;;;;5.35;4.85;;;;;;;16.65;54.20;96563.30;1702315;83;21022;-81
2022/06/06 00:54:21;;;;;;;4.92;4.53;;;;;;;16.70;54.60;96558.22;1699949;84;21333;-81
2022/06/06 00:56:52;;;;;;;6.05;4.20;;;;;;;16.69;54.79;96555.81;1699593;84;21680;-81
2022/06/06 00:59:22;;;;;;;5.33;4.83;;;;;;;16.68;55.31;96563.39;1700282;84;21060;-81
2022/06/06 01:01:49;;;;;;;6.00;4.80;;;;;;;16.63;55.74;96573.20;1691196;84;21026;-80
2022/06/06 01:04:16;;;;;;;5.87;5.37;;;;;;;16.49;55.42;96572.50;1683997;85;20971;-81
2022/06/06 01:06:42;;;;;;;5.62;5.10;;;;;;;16.43;55.71;96572.53;1706101;83;21051;-81
2022/06/06 01:09:09;;;;;;;6.12;5.53;;;;;;;16.38;56.32;96575.00;1708040;84;21050;-81
2022/06/06 01:11:37;;;;;;;5.75;5.20;;;;;;;16.30;57.07;96563.48;1707554;83;21030;-81
2022/06/06 01:14:03;;;;;;;5.58;5.10;;;;;;;16.23;57.26;96565.33;1719803;83;20960;-81
2022/06/06 01:16:47;;;;;;;5.28;4.87;;;;;;;16.13;57.68;96544.34;1707208;84;20975;-81
2022/06/06 01:20:03;;;;;;;6.92;5.50;;;;;;;16.06;57.78;96540.94;1719744;83;20983;-82
2022/06/06 01:22:59;;;;;;;5.15;4.75;;;;;;;16.00;58.54;96533.94;1719978;83;21426;-82
2022/06/06 01:25:58;;;;;;;5.15;4.75;;;;;;;15.95;57.66;96525.11;1720012;83;21034;-81
2022/06/06 01:28:32;;;;;;;5.65;5.10;;;;;;;15.99;57.88;96531.53;1720085;83;21429;-81
2022/06/06 01:31:00;;;;;;;5.42;5.00;;;;;;;16.04;57.88;96522.52;1719863;83;20968;-81
2022/06/06 01:33:26;;;;;;;6.10;5.58;;;;;;;16.06;58.02;96510.80;1699777;83;21048;-82
2022/06/06 01:35:51;;;;;;;5.80;5.30;;;;;;;16.07;58.31;96501.11;1707456;84;21314;-82
2022/06/06 01:38:20;;;;;;;5.60;4.78;;;;;;;16.05;58.63;96496.09;1719931;83;20967;-81
2022/06/06 01:40:52;;;;;;;5.70;5.20;;;;;;;16.07;58.31;96506.36;1707446;84;20986;-81
2022/06/06 01:43:21;;;;;;;5.10;4.60;;;;;;;16.06;58.08;96518.66;1719753;83;21154;-81
2022/06/06 01:45:58;;;;;;;5.05;4.65;;;;;;;16.07;57.86;96532.56;1673542;85;20995;-81
2022/06/06 01:48:27;;;;;;;5.50;5.00;;;;;;;16.12;57.55;96542.73;1673819;86;21091;-82
2022/06/06 01:50:53;;;;;;;6.08;5.40;;;;;;;16.14;57.87;96548.56;1672418;85;21083;-81
2022/06/06 01:53:23;;;;;;;5.80;5.30;;;;;;;16.14;57.86;96551.69;1675332;85;21392;-81
2022/06/06 01:55:51;;;;;;;5.47;4.97;;;;;;;16.10;58.66;96552.59;1648341;86;21056;-81
2022/06/06 01:58:21;;;;;;;5.17;4.78;;;;;;;16.13;59.00;96544.34;1662774;86;21004;-81
2022/06/06 02:00:47;;;;;;;6.15;4.65;;;;;;;16.22;58.19;96550.11;1665359;86;21031;-81
2022/06/06 02:03:12;;;;;;;5.90;5.40;;;;;;;16.41;57.59;96545.72;1669387;86;21370;-81
2022/06/06 02:05:38;;;;;;;5.78;5.33;;;;;;;16.62;58.53;96567.66;1669006;86;20974;-82
2022/06/06 02:08:04;;;;;;;6.37;5.62;;;;;;;16.50;58.17;96578.04;1668292;86;21386;-82
2022/06/06 02:10:30;;;;;;;6.62;5.87;;;;;;;16.32;58.16;96581.91;1668102;86;21067;-82
2022/06/06 02:12:56;;;;;;;6.87;6.15;;;;;;;16.17;58.12;96586.14;1665888;84;21114;-82
2022/06/06 02:15:23;;;;;;;6.00;5.50;;;;;;;16.07;58.26;96580.55;1669409;86;21008;-82
2022/06/06 02:17:51;;;;;;;6.03;5.53;;;;;;;16.02;58.76;96578.27;1669606;86;21085;-82
2022/06/06 02:20:18;;;;;;;6.33;5.53;;;;;;;16.01;59.10;96580.09;1669655;86;21031;-82
2022/06/06 02:22:44;;;;;;;5.97;5.10;;;;;;;16.11;58.58;96566.53;1669714;86;20995;-82
2022/06/06 02:25:10;;;;;;;5.37;4.97;;;;;;;16.32;58.13;96572.73;1669664;86;20996;-82
2022/06/06 02:27:36;;;;;;;5.58;4.72;;;;;;;16.48;58.08;96574.83;1669759;86;21002;-82
2022/06/06 02:30:03;;;;;;;5.65;5.12;;;;;;;16.65;57.59;96575.09;1661667;86;21476;-82
2022/06/06 02:32:31;;;;;;;6.03;5.40;;;;;;;16.77;57.22;96583.91;1641172;87;21038;-82
2022/06/06 02:34:58;;;;;;;6.22;5.62;;;;;;;16.82;57.82;96587.70;1641106;87;21057;-82
2022/06/06 02:37:24;;;;;;;6.28;5.72;;;;;;;16.73;57.51;96588.47;1641019;87;21074;-81
2022/06/06 02:39:50;;;;;;;6.40;5.80;;;;;;;16.65;57.51;96590.84;1641372;87;21406;-82
2022/06/06 02:42:16;;;;;;;6.37;5.78;;;;;;;16.58;58.03;96593.20;1649498;85;21023;-82
2022/06/06 02:44:42;;;;;;;6.03;5.42;;;;;;;16.51;58.59;96584.09;1682267;85;20966;-82
2022/06/06 02:47:07;;;;;;;7.08;5.72;;;;;;;16.43;59.20;96582.55;1706739;83;21034;-82
2022/06/06 02:49:33;;;;;;;5.75;5.28;;;;;;;16.38;59.35;96586.30;1705343;83;20967;-82
2022/06/06 02:52:03;;;;;;;5.92;5.33;;;;;;;16.37;60.03;96590.44;1696100;84;21360;-82
2022/06/06 02:54:29;;;;;;;6.15;5.65;;;;;;;16.42;60.35;96582.22;1693279;85;20996;-82
2022/06/06 02:56:56;;;;;;;5.70;5.30;;;;;;;16.49;59.92;96584.30;1685389;84;20999;-82
2022/06/06 02:59:23;;;;;;;6.05;5.58;;;;;;;16.58;60.24;96581.40;1679596;85;21018;-82
2022/06/06 03:01:48;;;;;;;6.10;5.60;;;;;;;16.63;59.85;96581.07;1682046;85;21006;-82
2022/06/06 03:04:14;;;;;;;5.47;5.08;;;;;;;16.67;59.77;96575.71;1682206;85;20979;-82
2022/06/06 03:07:11;;;;;;;5.95;5.45;;;;;;;16.71;60.09;96566.38;1719627;83;21039;-82
2022/06/06 03:10:01;;;;;;;5.75;5.30;;;;;;;16.72;60.17;96567.98;1719672;83;21031;-81
2022/06/06 03:12:51;;;;;;;5.80;5.30;;;;;;;16.71;60.72;96569.01;1670113;83;21150;-82
2022/06/06 03:15:39;;;;;;;5.90;5.50;;;;;;;16.68;60.77;96573.38;1719417;83;21415;-82
2022/06/06 03:21:28;;;;;;;5.72;5.25;;;;;;;16.64;61.71;96574.80;1709475;83;21432;-82
2022/06/06 03:24:02;;;;;;;5.75;5.35;;;;;;;16.64;62.08;96580.56;1704055;84;21011;-82
2022/06/06 03:27:11;;;;;;;6.40;5.85;;;;;;;16.65;62.30;96576.41;1703991;83;21376;-82
2022/06/06 03:30:14;;;;;;;6.28;5.78;;;;;;;16.67;62.42;96577.53;1703963;84;20947;-82
2022/06/06 03:32:58;;;;;;;6.37;5.62;;;;;;;16.71;62.35;96571.63;1689965;85;21042;-82
2022/06/06 03:35:41;;;;;;;6.72;6.12;;;;;;;16.77;62.48;96575.23;1695840;83;21416;-82
2022/06/06 03:38:34;;;;;;;6.65;6.05;;;;;;;16.79;63.24;96576.63;1717533;83;21010;-82
2022/06/06 03:41:20;;;;;;;6.58;5.97;;;;;;;16.78;63.58;96573.70;1718478;83;21045;-82
2022/06/06 03:44:15;;;;;;;5.47;5.08;;;;;;;16.82;64.25;96579.83;1661952;86;21158;-82
2022/06/06 03:46:51;;;;;;;6.05;5.55;;;;;;;16.86;64.68;96577.06;1718243;83;21407;-82
2022/06/06 03:49:27;;;;;;;6.60;6.00;;;;;;;16.89;64.94;96580.56;1718338;83;21020;-82
2022/06/06 03:52:07;;;;;;;6.22;5.60;;;;;;;16.92;65.19;96578.80;1720906;83;20997;-82
2022/06/06 03:54:50;;;;;;;5.87;5.37;;;;;;;16.94;65.16;96578.11;1721359;83;20981;-82
2022/06/06 03:57:19;;;;;;;6.80;6.30;;;;;;;16.94;64.81;96577.59;1721414;83;21040;-82
2022/06/06 03:59:48;;;;;;;6.92;6.33;;;;;;;17.03;64.64;96584.16;1721212;83;21049;-82
2022/06/06 04:02:19;;;;;;;6.75;6.15;;;;;;;17.09;65.10;96584.62;1721524;83;21419;-82
2022/06/06 04:04:45;;;;;;;7.45;6.85;;;;;;;17.13;65.09;96581.04;1721353;83;21131;-82
2022/06/06 04:07:11;;;;;;;6.83;6.25;;;;;;;17.18;65.11;96577.75;1721271;83;21491;-81
2022/06/06 04:09:37;;;;;;;6.25;5.75;;;;;;;17.23;65.26;96582.63;1721303;83;21091;-82
2022/06/06 04:12:48;;;;;;;6.70;6.10;;;;;;;17.30;65.28;96585.20;1721369;83;20999;-82
2022/06/06 04:15:20;;;;;;;8.43;7.62;;;;;;;17.36;64.19;96579.87;1721422;83;21095;-84
2022/06/06 04:18:10;;;;;;;7.65;7.05;;;;;;;17.48;65.43;96576.52;1721533;83;21424;-83
2022/06/06 04:20:58;;;;;;;7.58;6.95;;;;;;;17.54;65.07;96573.00;1721543;83;20949;-84
2022/06/06 04:23:52;;;;;;;7.58;6.70;;;;;;;17.59;64.74;96571.84;1721560;83;21025;-83
2022/06/06 04:26:23;;;;;;;6.30;5.70;;;;;;;17.63;64.95;96576.94;1721573;83;21060;-83
2022/06/06 04:29:17;;;;;;;7.12;6.42;;;;;;;17.65;64.46;96573.06;1721701;83;21000;-82
2022/06/06 04:32:04;;;;;;;8.38;6.72;;;;;;;17.70;64.82;96581.63;1724020;83;20971;-82
2022/06/06 04:34:52;;;;;;;7.45;6.85;;;;;;;17.73;64.78;96583.00;1721274;83;20999;-83
2022/06/06 04:37:42;;;;;;;7.35;6.83;;;;;;;17.74;65.35;96584.12;1721554;83;20963;-83
2022/06/06 04:40:48;;;;;;;6.75;6.20;;;;;;;17.75;65.31;96587.03;1708900;83;21370;-82
2022/06/06 04:43:28;;;;;;;7.08;6.50;;;;;;;17.78;65.01;96583.16;1719826;83;21062;-82
2022/06/06 04:46:20;;;;;;;6.60;6.00;;;;;;;17.82;64.96;96587.73;1714189;83;21054;-82
2022/06/06 04:48:46;;;;;;;7.15;6.55;;;;;;;17.86;63.69;96585.46;1707959;84;20992;-83
2022/06/06 04:51:15;;;;;;;6.97;6.47;;;;;;;17.93;64.14;96585.68;1702301;83;21353;-82
2022/06/06 04:53:41;;;;;;;6.70;6.20;;;;;;;17.95;64.51;96582.31;1727228;83;21347;-82
2022/06/06 04:56:07;;;;;;;6.87;6.22;;;;;;;18.00;64.40;96585.58;1708714;83;20963;-82
2022/06/06 04:58:33;;;;;;;6.10;5.50;;;;;;;18.02;64.16;96582.21;1709140;84;21050;-82
2022/06/06 05:01:01;;;;;;;6.22;5.72;;;;;;;18.06;63.66;96586.50;1719883;83;21059;-82
2022/06/06 05:03:26;;;;;;;7.10;6.50;;;;;;;18.09;62.47;96584.77;1718367;83;20986;-82
2022/06/06 05:06:04;;;;;;;6.83;6.22;;;;;;;18.13;63.50;96586.72;1723558;83;20994;-82
2022/06/06 05:09:00;;;;;;;7.20;6.50;;;;;;;18.15;62.49;96584.66;1720205;82;21321;-82
2022/06/06 05:11:56;;;;;;;6.58;6.05;;;;;;;18.21;62.65;96586.37;1699648;83;20927;-83
2022/06/06 05:14:35;;;;;;;6.65;6.03;;;;;;;18.24;61.74;96592.53;1718712;82;21039;-83
2022/06/06 05:17:15;;;;;;;7.03;6.42;;;;;;;18.30;61.85;96597.40;1721184;83;21053;-82
2022/06/06 05:19:49;;;;;;;6.83;6.22;;;;;;;18.29;61.85;96590.53;1721896;82;21441;-83
2022/06/06 05:22:26;;;;;;;7.15;6.55;;;;;;;18.27;61.54;96590.77;1721894;83;21048;-82
2022/06/06 05:25:20;;;;;;;8.18;7.47;;;;;;;18.26;61.70;96601.00;1700434;83;21030;-82
2022/06/06 05:28:01;;;;;;;7.33;6.62;;;;;;;18.26;61.82;96597.05;1707513;83;21291;-83
2022/06/06 05:30:38;;;;;;;7.37;6.78;;;;;;;18.22;62.51;96593.76;1691841;85;21020;-82
2022/06/06 05:33:11;;;;;;;6.28;5.67;;;;;;;18.18;63.27;96598.67;1711169;83;20983;-82
2022/06/06 05:36:06;;;;;;;6.95;6.25;;;;;;;18.17;63.84;96593.64;1710524;83;20975;-82
2022/06/06 05:39:00;;;;;;;8.43;6.58;;;;;;;18.17;64.50;96597.58;1720730;83;21100;-82
2022/06/06 05:41:35;;;;;;;7.05;6.55;;;;;;;18.17;64.21;96603.64;1720038;83;20982;-83
2022/06/06 05:44:22;;;;;;;7.28;6.67;;;;;;;18.17;64.37;96598.90;1720398;83;21090;-82
2022/06/06 05:47:11;;;;;;;7.17;6.67;;;;;;;18.19;64.70;96598.95;1690314;84;21337;-82
2022/06/06 05:50:14;;;;;;;6.60;6.10;;;;;;;18.24;63.60;96599.63;1728848;83;21054;-82
2022/06/06 05:53:10;;;;;;;6.30;5.80;;;;;;;18.30;63.37;96607.92;1700846;84;21327;-82
2022/06/06 05:55:44;;;;;;;7.40;6.80;;;;;;;18.33;62.95;96604.03;1673668;84;21029;-82
2022/06/06 05:58:44;;;;;;;7.78;6.87;;;;;;;18.37;62.36;96598.61;1688205;84;21010;-83
2022/06/06 06:01:46;;;;;;;6.53;6.03;;;;;;;18.40;62.91;96605.55;1672179;84;21440;-82
2022/06/06 06:04:37;;;;;;;7.28;6.58;;;;;;;18.44;63.28;96610.65;1647287;85;21087;-83
2022/06/06 06:07:35;;;;;;;7.20;6.60;;;;;;;18.52;62.34;96609.51;1706742;84;21002;-82
2022/06/06 06:10:28;;;;;;;6.97;6.40;;;;;;;18.63;61.52;96615.34;1735664;83;21465;-82
2022/06/06 06:13:15;;;;;;;7.17;6.53;;;;;;;18.74;61.74;96614.57;1710881;83;21138;-82
2022/06/06 06:15:43;;;;;;;7.58;6.87;;;;;;;18.81;60.92;96617.08;1706137;84;20988;-82
2022/06/06 06:18:22;;;;;;;7.17;6.47;;;;;;;18.91;60.62;96606.80;1672813;84;21087;-82
2022/06/06 06:20:56;;;;;;;7.50;6.90;;;;;;;19.00;60.53;96611.98;1726135;83;20993;-82
2022/06/06 06:23:27;;;;;;;8.20;7.30;;;;;;;19.11;59.73;96613.03;1702265;83;21007;-82
2022/06/06 06:25:53;;;;;;;7.62;7.03;;;;;;;19.19;59.91;96614.79;1683668;85;21411;-81
2022/06/06 06:28:18;;;;;;;7.78;7.10;;;;;;;19.29;59.81;96620.00;1684420;84;20996;-82
2022/06/06 06:30:52;;;;;;;7.22;6.62;;;;;;;19.36;59.70;96625.45;1687107;84;21000;-82
2022/06/06 06:33:39;;;;;;;6.70;6.20;;;;;;;19.42;59.13;96624.52;1687069;85;21091;-82
2022/06/06 06:36:11;;;;;;;7.22;6.60;;;;;;;19.49;58.60;96627.02;1703930;84;21350;-82
2022/06/06 06:38:49;;;;;;;;;;;;;;;19.56;58.07;96630.38;1695821;84;20986;-82
2022/06/06 06:41:27;;;;;;;6.83;6.15;;;;;;;19.65;58.14;96630.28;1693627;84;20372;-81
2022/06/06 06:44:12;;;;;;;7.08;6.47;;;;;;;19.74;58.46;96623.63;1694008;83;21027;-81
2022/06/06 06:46:44;;;;;;;7.03;6.42;;;;;;;19.85;58.68;96631.23;1678571;85;20979;-82
2022/06/06 06:49:28;;;;;;;6.72;6.22;;;;;;;19.96;58.77;96633.01;1679476;84;21002;-82
2022/06/06 06:52:23;;;;;;;6.25;5.75;;;;;;;20.07;58.29;96627.42;1661951;86;21092;-81
2022/06/06 06:55:02;;;;;;;6.95;6.25;;;;;;;20.20;57.77;96626.34;1672259;86;21003;-82
2022/06/06 06:58:00;;;;;;;7.62;6.92;;;;;;;20.28;58.55;96627.27;1649825;87;21002;-82
2022/06/06 07:00:26;;;;;;;6.92;6.33;;;;;;;20.33;59.60;96635.27;1673830;84;20991;-81
2022/06/06 07:09:48;;;;;;;7.15;6.45;;;;;;;20.57;57.19;96624.91;1673569;86;21028;-82
2022/06/06 07:12:41;;;;;;;6.70;6.20;;;;;;;20.65;57.34;96623.17;1663576;85;21423;-81
2022/06/06 07:15:16;;;;;;;7.15;6.45;;;;;;;20.76;56.73;96629.95;1645647;86;21028;-82
2022/06/06 07:17:49;;;;;;;7.58;6.87;;;;;;;20.87;55.91;96626.44;1648481;87;21035;-82
2022/06/06 07:20:16;;;;;;;7.12;6.53;;;;;;;20.91;56.17;96631.00;1676104;86;20995;-82
2022/06/06 07:23:02;;;;;;;7.80;7.05;;;;;;;20.96;56.94;96628.42;1677282;86;20998;-82
2022/06/06 07:25:44;;;;;;;7.12;6.53;;;;;;;21.02;55.73;96625.88;1677160;86;21114;-81
2022/06/06 07:28:21;;;;;;;7.40;6.70;;;;;;;21.09;56.30;96629.14;1675351;86;20979;-82
2022/06/06 07:31:32;;;;;;;7.45;6.85;;;;;;;21.15;56.42;96642.20;1702383;83;21077;-82
2022/06/06 07:34:55;;;;;;;6.65;6.15;;;;;;;21.29;55.64;96641.34;1702247;83;21014;-82
2022/06/06 07:38:04;;;;;;;6.70;6.10;;;;;;;21.40;54.94;96631.20;1702400;84;20963;-82
2022/06/06 07:40:59;;;;;;;6.95;6.35;;;;;;;21.53;55.99;96628.21;1702497;83;20991;-81
2022/06/06 07:43:46;;;;;;;7.20;6.50;;;;;;;21.67;54.95;96635.79;1702238;83;21023;-82
2022/06/06 07:46:55;;;;;;;6.95;6.33;;;;;;;21.72;54.08;96630.55;1695648;84;21031;-82
2022/06/06 07:49:29;;;;;;;7.33;6.72;;;;;;;21.76;54.86;96632.97;1710994;84;20987;-83
2022/06/06 07:52:08;;;;;;;6.78;6.28;;;;;;;21.84;54.76;96626.75;1716239;83;21414;-82
2022/06/06 07:54:53;;;;;;;6.92;6.37;;;;;;;21.88;53.56;96629.69;1716848;83;20986;-82
2022/06/06 07:57:59;;;;;;;6.80;6.22;;;;;;;21.92;53.20;96628.14;1721833;83;20975;-82
2022/06/06 08:00:28;;;;;;;7.33;6.60;;;;;;;21.97;53.87;96628.22;1721089;83;21067;-82
2022/06/06 08:03:23;;;;;;;6.83;6.20;;;;;;;22.06;54.48;96626.75;1721806;83;21013;-82
2022/06/06 08:06:14;;;;;;;7.28;6.58;;;;;;;22.16;52.63;96625.54;1721500;83;21059;-83
2022/06/06 08:09:21;;;;;;;7.10;6.60;;;;;;;22.27;53.50;96624.30;1721649;83;20982;-83
2022/06/06 08:12:10;;;;;;;6.78;6.28;;;;;;;22.34;52.49;96618.30;1721923;83;21043;-83
2022/06/06 08:15:09;;;;;;;6.80;6.20;;;;;;;22.48;52.28;96624.80;1721415;83;21038;-83
2022/06/06 08:17:52;;;;;;;6.62;6.12;;;;;;;22.63;51.94;96619.63;1717932;83;20977;-83
2022/06/06 08:20:40;;;;;;;6.37;5.87;;;;;;;22.79;51.40;96619.23;1716489;84;20999;-82
2022/06/06 08:23:07;;;;;;;7.37;6.65;;;;;;;22.98;51.62;96618.34;1717140;83;21018;-83
2022/06/06 08:25:35;;;;;;;6.75;6.22;;;;;;;23.17;51.88;96614.75;1717003;83;20979;-83
2022/06/06 08:28:01;;;;;;;7.15;6.55;;;;;;;23.13;52.43;96615.80;1717300;83;20959;-83
2022/06/06 08:30:26;;;;;;;6.75;6.22;;;;;;;22.89;52.23;96623.30;1716026;83;20991;-83
2022/06/06 08:32:52;;;;;;;7.35;6.75;;;;;;;22.68;54.21;96622.84;1720763;83;21381;-83
2022/06/06 08:35:18;;;;;;;7.17;6.45;;;;;;;22.52;54.92;96633.03;1698906;83;21402;-83
2022/06/06 08:38:04;;;;;;;8.90;7.47;;;;;;;22.40;56.59;96630.53;1701483;84;21054;-83
2022/06/06 08:40:56;;;;;;;7.90;7.30;;;;;;;22.30;57.49;96632.56;1701653;83;21452;-83
2022/06/06 08:43:58;;;;;;;7.70;6.90;;;;;;;22.18;58.47;96631.91;1703754;82;21056;-82
2022/06/06 08:46:45;;;;;;;7.95;7.15;;;;;;;22.03;58.59;96629.86;1713450;82;21002;-82
2022/06/06 08:52:35;;;;;;;6.80;6.30;;;;;;;21.78;60.08;96634.84;1671888;84;21058;-81
2022/06/06 08:55:19;;;;;;;7.00;6.40;;;;;;;21.63;59.85;96634.13;1712091;83;20979;-81
2022/06/06 08:58:06;;;;;;;7.15;6.53;;;;;;;21.57;60.23;96631.16;1725175;83;21345;-81
2022/06/06 09:01:03;;;;;;;7.95;7.25;;;;;;;21.56;60.81;96630.88;1695629;84;21087;-82
2022/06/06 09:03:43;;;;;;;7.12;6.53;;;;;;;21.55;61.14;96636.70;1701915;82;20985;-82
2022/06/06 09:06:35;;;;;;;8.23;7.50;;;;;;;21.50;61.64;96630.03;1695866;83;20988;-82
2022/06/06 09:09:16;;;;;;;8.43;7.75;;;;;;;21.46;62.99;96632.86;1726389;82;20992;-81
2022/06/06 09:12:18;;;;;;;7.70;7.00;;;;;;;21.43;63.38;96628.59;1722885;82;21013;-82
2022/06/06 09:15:16;;;;;;;7.85;7.25;;;;;;;21.45;63.64;96625.17;1726263;83;21442;-82
2022/06/06 09:18:05;;;;;;;7.90;7.20;;;;;;;21.49;63.50;96622.34;1682983;84;21078;-82
2022/06/06 09:21:09;;;;;;;7.35;6.75;;;;;;;21.84;63.11;96631.23;1726897;83;20995;-81
2022/06/06 09:24:23;;;;;;;8.03;7.33;;;;;;;22.32;61.51;96623.05;1706664;83;21440;-81
2022/06/06 09:27:24;;;;;;;7.30;6.67;;;;;;;22.67;57.87;96623.37;1688969;83;20986;-82
2022/06/06 09:30:19;;;;;;;7.92;7.20;;;;;;;23.00;60.54;96614.38;1693026;83;22514;-81
2022/06/06 09:33:37;;;;;;;8.15;7.40;;;;;;;23.26;59.18;96613.99;1714075;83;21097;-81
2022/06/06 09:36:43;;;;;;;7.15;6.55;;;;;;;23.53;60.05;96612.55;1714291;83;21034;-82
2022/06/06 09:39:14;;;;;;;7.65;6.90;;;;;;;23.72;57.62;96612.13;1707742;83;21339;-81
2022/06/06 09:42:01;;;;;;;;;;;;;;;23.74;58.59;96607.36;1709630;83;21064;-82
2022/06/06 09:44:59;;;;;;;7.37;6.67;;;;;;;23.79;55.71;96611.38;1700218;82;20130;-82
2022/06/06 09:47:56;;;;;;;8.00;7.33;;;;;;;23.59;57.23;96611.57;1670420;85;21073;-81
2022/06/06 09:50:54;;;;;;;7.70;7.10;;;;;;;23.37;57.54;96602.92;1662565;85;20927;-81
2022/06/06 09:53:44;;;;;;;8.68;7.97;;;;;;;23.22;57.53;96605.49;1673641;85;21020;-82
2022/06/06 10:00:11;;;;;;;8.35;7.55;;;;;;;22.91;58.95;96603.17;1671761;85;20988;-82
2022/06/06 10:02:43;;;;;;;8.08;7.47;;;;;;;22.80;59.85;96606.78;1671480;85;21027;-82
2022/06/06 10:05:38;;;;;;;7.67;7.08;;;;;;;22.77;61.03;96609.39;1673979;85;21054;-81
2022/06/06 10:08:21;;;;;;;8.20;7.42;;;;;;;22.77;61.25;96605.41;1673861;85;21082;-82
2022/06/06 10:11:12;;;;;;;8.35;7.55;;;;;;;22.71;61.53;96601.14;1664229;85;21079;-82
2022/06/06 10:13:52;;;;;;;8.67;7.87;;;;;;;22.68;62.06;96602.98;1671668;85;21032;-82
2022/06/06 10:16:36;;;;;;;8.65;7.95;;;;;;;22.65;61.96;96606.14;1670285;85;21212;-82
2022/06/06 10:19:10;;;;;;;8.33;7.62;;;;;;;22.69;63.19;96596.09;1669815;85;21015;-81
2022/06/06 10:21:57;;;;;;;7.90;7.30;;;;;;;22.68;63.81;96600.33;1673008;85;21382;-82
2022/06/06 10:24:34;;;;;;;8.70;7.78;;;;;;;22.70;64.26;96592.39;1671140;85;20960;-82
2022/06/06 10:27:23;;;;;;;8.30;7.72;;;;;;;22.72;62.17;96596.11;1667974;85;20948;-82
2022/06/06 10:30:16;;;;;;;9.08;8.38;;;;;;;22.79;62.03;96592.74;1668060;85;21030;-81
2022/06/06 10:33:10;;;;;;;8.75;8.00;;;;;;;22.80;62.97;96598.31;1667318;85;20981;-82
2022/06/06 10:35:44;;;;;;;8.80;8.00;;;;;;;22.77;62.89;96598.79;1670317;85;21044;-82
2022/06/06 10:38:59;;;;;;;8.98;8.15;;;;;;;22.73;62.56;96597.18;1672083;85;21402;-81
2022/06/06 10:41:37;;;;;;;9.05;8.33;;;;;;;22.69;63.09;96601.92;1671861;85;21029;-82
2022/06/06 10:44:26;;;;;;;10.58;8.40;;;;;;;22.66;63.38;96601.91;1671281;85;21037;-81
2022/06/06 10:47:00;;;;;;;8.98;8.28;;;;;;;22.64;63.60;96605.86;1708103;83;20972;-82
2022/06/06 10:50:00;;;;;;;8.80;7.87;;;;;;;22.61;64.04;96605.02;1718278;83;20994;-85
2022/06/06 10:53:08;;;;;;;9.05;8.25;;;;;;;22.64;64.23;96604.02;1715700;83;20932;-82
2022/06/06 10:56:18;;;;;;;9.20;8.50;;;;;;;22.65;63.89;96604.81;1720270;83;21031;-81
2022/06/06 10:59:27;;;;;;;9.55;8.75;;;;;;;22.70;62.16;96593.72;1710213;83;21011;-80
2022/06/06 11:02:41;;;;;;;9.40;8.50;;;;;;;22.72;64.39;96590.81;1721752;83;21045;-81
2022/06/06 11:05:21;;;;;;;8.98;8.20;;;;;;;22.71;64.13;96594.52;1617737;88;21118;-81
2022/06/06 11:08:11;;;;;;;8.80;8.03;;;;;;;22.75;64.03;96595.08;1620661;88;21043;-80
2022/06/06 11:11:25;;;;;;;8.40;7.70;;;;;;;22.77;64.66;96590.84;1667489;83;20990;-80
2022/06/06 11:14:03;;;;;;;9.45;8.55;;;;;;;22.77;64.26;96590.84;1712966;83;21287;-80
2022/06/06 11:16:55;;;;;;;9.88;9.00;;;;;;;22.92;64.62;96589.66;1720704;83;20971;-81
2022/06/06 11:20:02;;;;;;;9.23;8.55;;;;;;;23.06;65.60;96597.45;1692298;84;20974;-81
2022/06/06 11:22:48;;;;;;;9.58;8.78;;;;;;;23.22;62.75;96592.23;1702850;83;21073;-80
2022/06/06 11:25:16;;;;;;;9.55;8.85;;;;;;;23.43;61.82;96590.48;1721751;83;20948;-81
2022/06/06 11:28:28;;;;;;;9.03;8.23;;;;;;;23.57;62.74;96590.31;1722523;83;20978;-81
2022/06/06 11:31:25;;;;;;;9.60;8.78;;;;;;;23.64;62.71;96593.02;1716418;83;21405;-81
2022/06/06 11:34:16;;;;;;;9.60;8.80;;;;;;;23.63;62.13;96585.32;1714256;83;20954;-81
2022/06/06 11:37:19;;;;;;;10.07;9.07;;;;;;;23.51;62.77;96588.16;1693499;83;21070;-81
2022/06/06 11:40:27;;;;;;;9.58;8.35;;;;;;;23.40;63.08;96588.35;1723763;83;20976;-80
2022/06/06 11:43:20;;;;;;;7.90;7.20;;;;;;;23.35;63.16;96588.61;1722092;83;20935;-81
2022/06/06 11:46:25;;;;;;;8.38;7.70;;;;;;;23.35;61.70;96589.93;1724379;83;21031;-81
2022/06/06 11:49:13;;;;;;;9.10;8.40;;;;;;;23.43;60.10;96586.50;1703632;84;20943;-80
2022/06/06 11:52:25;;;;;;;8.90;8.08;;;;;;;23.48;60.21;96582.57;1608841;88;21043;-81
2022/06/06 11:55:42;;;;;;;8.65;7.70;;;;;;;23.50;61.58;96581.78;1704361;84;21026;-80
2022/06/06 11:59:00;;;;;;;9.18;8.48;;;;;;;23.53;61.55;96578.61;1705334;83;20991;-81
2022/06/06 12:01:55;;;;;;;9.43;8.58;;;;;;;23.57;62.50;96573.08;1725637;82;21444;-82
2022/06/06 12:04:26;;;;;;;8.05;7.35;;;;;;;23.65;62.74;96572.59;1724446;83;20994;-82
2022/06/06 12:07:13;;;;;;;8.10;7.33;;;;;;;23.89;60.74;96566.28;1724525;82;21006;-82
2022/06/06 12:10:20;;;;;;;8.48;7.78;;;;;;;24.19;58.67;96569.00;1703352;84;21072;-82
2022/06/06 12:13:13;;;;;;;9.00;8.20;;;;;;;24.44;60.23;96565.63;1665093;84;22176;-84
2022/06/06 12:16:09;;;;;;;9.20;8.35;;;;;;;24.64;57.09;96552.86;1705343;83;21051;-83
2022/06/06 12:19:02;;;;;;;8.70;7.78;;;;;;;24.69;59.69;96549.40;1705524;84;21088;-81
2022/06/06 12:21:42;;;;;;;9.28;8.35;;;;;;;24.66;57.91;96559.23;1704658;84;21036;-82
2022/06/06 12:24:42;;;;;;;8.93;8.13;;;;;;;24.51;55.93;96558.70;1703816;83;21027;-83
2022/06/06 12:28:01;;;;;;;7.80;7.20;;;;;;;24.45;56.08;96560.58;1705126;84;21028;-83
2022/06/06 12:31:08;;;;;;;8.35;7.67;;;;;;;24.32;57.22;96551.80;1700815;84;20993;-82
2022/06/06 12:34:13;;;;;;;7.87;7.28;;;;;;;24.13;57.78;96552.02;1705732;83;21381;-83
2022/06/06 12:36:56;;;;;;;8.25;7.53;;;;;;;23.93;58.29;96560.75;1726187;82;20987;-82
2022/06/06 12:39:31;;;;;;;8.65;7.97;;;;;;;23.74;58.62;96560.41;1729031;82;20989;-82
2022/06/06 12:42:06;;;;;;;8.83;8.03;;;;;;;23.55;59.06;96552.62;1725954;83;21078;-81
2022/06/06 12:45:05;;;;;;;8.95;8.05;;;;;;;23.40;59.67;96552.55;1714930;83;21451;-82
2022/06/06 12:47:49;;;;;;;8.55;7.75;;;;;;;23.28;60.30;96550.14;1715058;82;20978;-81
2022/06/06 12:50:25;;;;;;;8.78;7.97;;;;;;;23.16;61.27;96549.02;1718081;83;20940;-81
2022/06/06 12:53:12;;;;;;;8.50;7.80;;;;;;;23.10;61.58;96549.22;1697102;84;21319;-82
2022/06/06 12:56:24;;;;;;;8.53;7.72;;;;;;;23.04;61.95;96549.73;1669030;86;20975;-82
2022/06/06 12:59:22;;;;;;;8.48;7.87;;;;;;;23.04;61.91;96559.80;1690781;84;20972;-82
2022/06/06 13:02:17;;;;;;;7.65;6.92;;;;;;;23.03;63.01;96565.36;1689024;83;21046;-82
2022/06/06 13:05:31;;;;;;;9.50;7.08;;;;;;;22.94;61.37;96567.71;1734396;82;20930;-82
2022/06/06 13:08:32;;;;;;;6.35;5.70;;;;;;;22.92;61.21;96571.64;1726149;83;20938;-82
2022/06/06 13:11:15;;;;;;;6.60;6.00;;;;;;;22.86;60.67;96571.34;1671123;83;21076;-82